Time;durP1;ratioP1;P1;durP2;ratioP2;P2;SDS_P1;SDS_P2;PMS_P1;PMS_P2;Temp;Humidity;BMP_temperature;BMP_pressure;BME280_temperature;BME280_humidity;BME280_pressure;Samples;Min_cycle;Max_cycle;Signal;HPM_P1;HPM_P2
2021/06/05 00:00:44;;;;;;;0.40;0.22;;;17.20;99.90;;;;;;5129831;28;20370;-72
2021/06/05 00:03:11;;;;;;;0.40;0.20;;;17.20;99.90;;;;;;5128569;28;20377;-71
2021/06/05 00:05:40;;;;;;;0.40;0.30;;;17.30;99.90;;;;;;5127243;28;20492;-71
2021/06/05 00:08:07;;;;;;;0.40;0.20;;;17.20;99.90;;;;;;5128994;28;20719;-72
2021/06/05 00:10:37;;;;;;;0.40;0.20;;;17.10;99.90;;;;;;5130026;28;20379;-72
2021/06/05 00:13:10;;;;;;;0.40;0.30;;;17.10;99.90;;;;;;5126864;28;20851;-72
2021/06/05 00:15:40;;;;;;;0.40;0.20;;;17.20;99.90;;;;;;5130890;27;20410;-72
2021/06/05 00:18:06;;;;;;;0.40;0.30;;;17.00;99.90;;;;;;5133980;27;20467;-72
2021/06/05 00:20:33;;;;;;;0.40;0.30;;;17.10;99.90;;;;;;5134125;27;20371;-72
2021/06/05 00:23:01;;;;;;;0.40;0.20;;;17.20;99.90;;;;;;5134671;27;20371;-72
2021/06/05 00:25:29;;;;;;;0.40;0.30;;;17.10;99.90;;;;;;5134484;27;20721;-71
2021/06/05 00:27:55;;;;;;;0.40;0.20;;;17.00;99.90;;;;;;5134439;27;20942;-73
2021/06/05 00:30:22;;;;;;;0.40;0.20;;;17.00;99.90;;;;;;5133745;27;20374;-72
2021/06/05 00:32:47;;;;;;;0.40;0.20;;;17.10;99.90;;;;;;5134882;27;20402;-74
2021/06/05 00:35:14;;;;;;;0.40;0.20;;;17.00;99.90;;;;;;5133934;27;20878;-72
2021/06/05 00:37:40;;;;;;;0.40;0.20;;;17.10;99.90;;;;;;5134516;27;20378;-71
2021/06/05 00:40:08;;;;;;;0.40;0.20;;;17.10;99.90;;;;;;5130559;27;20374;-73
2021/06/05 00:42:37;;;;;;;0.40;0.30;;;17.10;99.90;;;;;;5132799;27;20792;-74
2021/06/05 00:45:06;;;;;;;0.40;0.20;;;17.20;99.90;;;;;;5132297;27;20477;-72
2021/06/05 00:47:34;;;;;;;0.40;0.30;;;17.10;99.90;;;;;;5133896;27;20504;-73
2021/06/05 00:50:00;;;;;;;0.40;0.20;;;17.20;99.90;;;;;;5134232;27;20465;-73
2021/06/05 00:52:28;;;;;;;0.40;0.20;;;17.00;99.90;;;;;;5130791;27;20378;-72
2021/06/05 00:54:54;;;;;;;0.40;0.20;;;17.00;99.90;;;;;;5133857;27;20527;-73
2021/06/05 00:57:19;;;;;;;0.40;0.20;;;16.90;99.90;;;;;;5133825;27;20374;-73
2021/06/05 00:59:45;;;;;;;0.40;0.20;;;16.90;99.90;;;;;;5134427;27;20383;-73
2021/06/05 01:02:16;;;;;;;0.40;0.30;;;16.80;99.90;;;;;;5133612;27;20382;-73
2021/06/05 01:04:42;;;;;;;0.40;0.20;;;16.70;99.90;;;;;;5134025;27;20374;-73
2021/06/05 01:07:25;;;;;;;0.40;0.20;;;16.90;99.90;;;;;;5133875;27;20385;-73
2021/06/05 01:10:05;;;;;;;0.40;0.30;;;17.00;99.90;;;;;;5134179;27;20383;-73
2021/06/05 01:13:02;;;;;;;0.40;0.30;;;16.90;99.90;;;;;;5129659;27;20447;-73
2021/06/05 01:15:32;;;;;;;0.40;0.20;;;16.80;99.90;;;;;;5130451;27;20405;-73
2021/06/05 01:18:39;;;;;;;0.40;0.20;;;16.90;99.90;;;;;;5133555;27;20458;-74
2021/06/05 01:21:38;;;;;;;0.40;0.20;;;16.90;99.90;;;;;;5030219;28;20456;-73
2021/06/05 01:24:23;;;;;;;0.40;0.30;;;16.90;99.90;;;;;;5133551;27;20409;-74
2021/06/05 01:26:57;;;;;;;0.40;0.30;;;16.90;99.90;;;;;;5133129;27;20761;-74
2021/06/05 01:29:35;;;;;;;0.40;0.30;;;16.80;99.90;;;;;;5132852;27;20378;-74
2021/06/05 01:32:07;;;;;;;0.40;0.20;;;16.80;99.90;;;;;;5133512;27;20780;-74
2021/06/05 01:34:38;;;;;;;0.40;0.20;;;16.80;99.90;;;;;;5119059;27;20402;-73
2021/06/05 01:37:08;;;;;;;0.40;0.28;;;16.80;99.90;;;;;;5133528;27;20524;-74
2021/06/05 01:39:37;;;;;;;0.40;0.20;;;16.80;99.90;;;;;;5133572;27;20386;-74
2021/06/05 01:42:08;;;;;;;0.40;0.20;;;16.80;99.90;;;;;;5133343;27;20403;-74
2021/06/05 01:44:36;;;;;;;0.40;0.20;;;16.90;99.90;;;;;;5133723;27;20459;-74
2021/06/05 01:47:03;;;;;;;0.40;0.30;;;16.80;99.90;;;;;;5133734;27;20443;-73
2021/06/05 01:49:29;;;;;;;0.40;0.30;;;16.80;99.90;;;;;;5132942;27;20711;-74
2021/06/05 01:52:23;;;;;;;0.40;0.20;;;16.70;99.90;;;;;;5133217;27;20367;-73
2021/06/05 01:55:14;;;;;;;0.40;0.30;;;16.70;99.90;;;;;;5133093;27;20471;-74
2021/06/05 01:57:48;;;;;;;0.40;0.30;;;16.60;99.90;;;;;;5132195;27;20383;-73
2021/06/05 02:00:37;;;;;;;0.40;0.28;;;16.80;99.90;;;;;;5132693;27;20371;-74
2021/06/05 02:03:04;;;;;;;0.40;0.20;;;16.70;99.90;;;;;;5112679;28;20457;-73
2021/06/05 02:05:30;;;;;;;0.40;0.20;;;16.70;99.90;;;;;;5112148;28;20380;-74
2021/06/05 02:07:57;;;;;;;0.40;0.20;;;16.70;99.90;;;;;;5112457;28;20373;-74
2021/06/05 02:10:25;;;;;;;0.40;0.20;;;16.70;99.90;;;;;;5111814;28;20450;-75
2021/06/05 02:12:53;;;;;;;0.40;0.20;;;16.60;99.90;;;;;;5112330;28;20369;-74
2021/06/05 02:15:45;;;;;;;0.40;0.20;;;16.70;99.90;;;;;;5111713;28;20396;-75
2021/06/05 02:18:19;;;;;;;0.40;0.20;;;16.70;99.90;;;;;;5111656;28;20775;-75
2021/06/05 02:20:53;;;;;;;0.40;0.20;;;16.60;99.90;;;;;;5112149;28;20463;-75
2021/06/05 02:23:26;;;;;;;0.40;0.30;;;16.60;99.90;;;;;;5111568;28;20407;-74
2021/06/05 02:25:58;;;;;;;0.40;0.20;;;16.60;99.90;;;;;;5112179;28;20385;-73
2021/06/05 02:28:25;;;;;;;0.40;0.30;;;16.60;99.90;;;;;;5111768;28;20376;-74
2021/06/05 02:30:51;;;;;;;0.40;0.30;;;16.60;99.90;;;;;;5111986;28;20400;-74
2021/06/05 02:33:17;;;;;;;0.40;0.30;;;16.60;99.90;;;;;;5111617;28;20813;-74
2021/06/05 02:35:45;;;;;;;0.40;0.20;;;16.50;99.90;;;;;;5111919;28;20416;-74
2021/06/05 02:38:15;;;;;;;0.40;0.20;;;16.50;99.90;;;;;;5110829;28;20449;-77
2021/06/05 02:40:42;;;;;;;0.40;0.20;;;16.60;99.90;;;;;;5112177;28;20384;-74
2021/06/05 02:43:14;;;;;;;0.40;0.30;;;16.50;99.90;;;;;;5111733;28;20863;-74
2021/06/05 02:45:42;;;;;;;0.40;0.20;;;16.50;99.90;;;;;;5111414;28;20483;-76
2021/06/05 02:48:08;;;;;;;0.40;0.20;;;16.50;99.90;;;;;;5112105;28;20380;-74
2021/06/05 02:50:39;;;;;;;0.40;0.20;;;16.50;99.90;;;;;;5093000;28;20388;-75
2021/06/05 02:53:06;;;;;;;0.40;0.20;;;16.50;99.90;;;;;;5111584;28;20529;-74
2021/06/05 02:55:32;;;;;;;0.40;0.22;;;16.50;99.90;;;;;;5111116;28;20428;-74
2021/06/05 02:57:58;;;;;;;0.40;0.20;;;16.40;99.90;;;;;;5111791;28;20376;-74
2021/06/05 03:00:31;;;;;;;0.40;0.20;;;16.40;99.90;;;;;;5111081;28;20381;-75
2021/06/05 03:02:57;;;;;;;0.40;0.20;;;16.50;99.90;;;;;;5132438;27;20383;-74
2021/06/05 03:05:23;;;;;;;0.40;0.30;;;16.50;99.90;;;;;;5131557;27;20375;-75
2021/06/05 03:07:49;;;;;;;0.40;0.20;;;16.40;99.90;;;;;;5131990;27;20366;-74
2021/06/05 03:10:16;;;;;;;0.40;0.20;;;16.40;99.90;;;;;;5131267;27;20664;-75
2021/06/05 03:12:41;;;;;;;0.40;0.20;;;16.40;99.90;;;;;;5131955;27;20375;-75
2021/06/05 03:15:08;;;;;;;0.40;0.20;;;16.30;99.90;;;;;;5113526;27;20455;-74
2021/06/05 03:17:33;;;;;;;0.40;0.20;;;16.30;99.90;;;;;;5131073;27;20378;-74
2021/06/05 03:19:59;;;;;;;0.40;0.30;;;16.40;99.90;;;;;;5131679;27;20420;-75
2021/06/05 03:22:25;;;;;;;0.40;0.20;;;16.20;99.90;;;;;;5130676;27;20788;-74
2021/06/05 03:24:52;;;;;;;0.40;0.20;;;16.20;99.90;;;;;;5113353;27;20414;-74
2021/06/05 03:27:19;;;;;;;0.40;0.20;;;16.40;99.90;;;;;;5131063;27;20371;-76
2021/06/05 03:29:45;;;;;;;0.40;0.20;;;16.30;99.90;;;;;;5131491;27;20431;-77
2021/06/05 03:32:11;;;;;;;0.40;0.20;;;16.20;99.90;;;;;;5131767;27;20400;-74
2021/06/05 03:34:36;;;;;;;0.40;0.20;;;16.30;99.90;;;;;;5131081;27;20399;-75
2021/06/05 03:37:05;;;;;;;0.40;0.20;;;16.20;99.90;;;;;;5113085;27;20422;-74
2021/06/05 03:39:30;;;;;;;0.40;0.20;;;16.20;99.90;;;;;;5131293;27;20387;-75
2021/06/05 03:41:56;;;;;;;0.40;0.20;;;16.30;99.90;;;;;;5131559;27;20784;-75
2021/06/05 03:44:22;;;;;;;0.40;0.20;;;16.30;99.90;;;;;;5131138;27;20964;-74
2021/06/05 03:46:48;;;;;;;0.40;0.20;;;16.20;99.90;;;;;;5131297;27;20389;-75
2021/06/05 03:49:14;;;;;;;0.40;0.30;;;16.20;99.90;;;;;;5131038;27;20378;-75
2021/06/05 03:51:40;;;;;;;0.40;0.30;;;16.20;99.90;;;;;;5130735;27;20379;-76
2021/06/05 03:54:06;;;;;;;0.40;0.20;;;16.20;99.90;;;;;;5130691;27;20418;-74
2021/06/05 03:56:32;;;;;;;0.40;0.20;;;16.20;99.90;;;;;;5131142;28;20383;-75
2021/06/05 03:58:58;;;;;;;0.40;0.30;;;16.20;99.90;;;;;;5131757;28;20447;-75
2021/06/05 04:01:26;;;;;;;0.40;0.20;;;16.20;99.90;;;;;;5131148;28;20773;-75
2021/06/05 04:03:51;;;;;;;0.40;0.20;;;16.20;99.90;;;;;;5131932;28;20432;-74
2021/06/05 04:06:21;;;;;;;0.40;0.20;;;16.20;99.90;;;;;;5131197;28;20854;-76
2021/06/05 04:08:47;;;;;;;0.40;0.30;;;16.30;99.90;;;;;;5131844;28;20785;-74
2021/06/05 04:11:13;;;;;;;0.40;0.20;;;16.30;99.90;;;;;;5131791;28;20394;-76
2021/06/05 04:13:39;;;;;;;0.40;0.20;;;16.30;99.90;;;;;;5131433;28;20724;-74
2021/06/05 04:16:05;;;;;;;0.40;0.20;;;16.30;99.90;;;;;;5131986;28;20954;-74
2021/06/05 04:18:35;;;;;;;0.40;0.30;;;16.20;99.90;;;;;;5131335;28;20430;-74
2021/06/05 04:21:03;;;;;;;0.40;0.20;;;16.20;99.90;;;;;;5132099;28;20447;-74
2021/06/05 04:23:29;;;;;;;0.40;0.20;;;16.30;99.90;;;;;;5112847;28;20390;-74
2021/06/05 04:25:55;;;;;;;0.40;0.20;;;16.20;99.90;;;;;;5131960;28;20527;-75
2021/06/05 04:28:22;;;;;;;0.40;0.30;;;16.10;99.90;;;;;;5131249;28;20379;-75
2021/06/05 04:30:48;;;;;;;0.40;0.20;;;16.20;99.90;;;;;;5131965;28;20462;-74
2021/06/05 04:33:18;;;;;;;0.40;0.20;;;16.20;99.90;;;;;;5131637;28;20386;-75
2021/06/05 04:35:43;;;;;;;0.40;0.20;;;16.30;99.90;;;;;;5131483;28;20406;-74
2021/06/05 04:38:10;;;;;;;0.40;0.20;;;16.20;99.90;;;;;;5131407;28;20371;-75
2021/06/05 04:40:38;;;;;;;0.40;0.20;;;16.40;99.90;;;;;;5130899;28;20726;-76
2021/06/05 04:43:04;;;;;;;0.40;0.20;;;16.40;99.90;;;;;;5131772;28;20371;-75
2021/06/05 04:45:30;;;;;;;0.40;0.20;;;16.30;99.90;;;;;;5131192;28;20402;-75
2021/06/05 04:47:55;;;;;;;0.40;0.20;;;16.40;99.90;;;;;;5131735;28;20407;-75
2021/06/05 04:50:25;;;;;;;0.40;0.20;;;16.40;99.90;;;;;;5131228;28;20424;-74
2021/06/05 04:52:51;;;;;;;0.40;0.20;;;16.30;99.90;;;;;;5113186;28;20386;-74
2021/06/05 04:55:17;;;;;;;0.40;0.20;;;16.30;99.90;;;;;;5131426;27;20446;-74
2021/06/05 04:57:43;;;;;;;0.40;0.20;;;16.40;99.90;;;;;;5130730;28;20377;-74
2021/06/05 05:00:15;;;;;;;0.40;0.20;;;16.40;99.90;;;;;;5131374;28;20882;-75
2021/06/05 05:02:41;;;;;;;0.40;0.20;;;16.40;99.90;;;;;;5133405;27;20379;-75
2021/06/05 05:05:08;;;;;;;0.40;0.20;;;16.30;99.90;;;;;;5135400;27;20402;-75
2021/06/05 05:07:34;;;;;;;0.40;0.30;;;16.30;99.90;;;;;;5134551;27;20869;-76
2021/06/05 05:10:01;;;;;;;0.40;0.30;;;16.40;99.90;;;;;;5135192;27;20379;-75
2021/06/05 05:12:27;;;;;;;0.40;0.20;;;16.40;99.90;;;;;;5134398;27;20379;-75
2021/06/05 05:14:54;;;;;;;0.40;0.20;;;16.40;99.90;;;;;;5135041;27;20549;-75
2021/06/05 05:17:20;;;;;;;0.40;0.20;;;16.50;99.90;;;;;;5135079;27;20375;-75
2021/06/05 05:19:46;;;;;;;0.40;0.20;;;16.60;99.90;;;;;;5135067;27;20383;-75
2021/06/05 05:22:12;;;;;;;0.40;0.20;;;16.50;99.90;;;;;;5135281;27;20459;-75
2021/06/05 05:24:38;;;;;;;0.40;0.20;;;16.60;99.90;;;;;;5115727;27;20531;-75
2021/06/05 05:27:04;;;;;;;0.40;0.30;;;16.70;99.90;;;;;;5134937;27;20374;-74
2021/06/05 05:29:30;;;;;;;0.40;0.30;;;16.70;99.90;;;;;;5133919;27;20435;-75
2021/06/05 05:31:55;;;;;;;0.40;0.20;;;16.70;99.90;;;;;;5134839;27;20375;-75
2021/06/05 05:34:21;;;;;;;0.40;0.30;;;16.70;99.90;;;;;;5134678;27;20407;-75
2021/06/05 05:36:47;;;;;;;0.40;0.30;;;16.60;99.90;;;;;;5134276;27;20374;-75
2021/06/05 05:39:16;;;;;;;0.40;0.20;;;16.70;99.90;;;;;;5115999;27;20389;-75
2021/06/05 05:41:43;;;;;;;0.40;0.20;;;16.70;99.90;;;;;;5134146;27;20757;-75
2021/06/05 05:44:09;;;;;;;0.40;0.27;;;16.70;99.90;;;;;;5116075;27;20389;-75
2021/06/05 05:46:36;;;;;;;0.40;0.30;;;16.90;99.90;;;;;;5133799;27;20847;-75
2021/06/05 05:49:03;;;;;;;0.40;0.20;;;16.90;99.90;;;;;;5134352;27;20431;-75
2021/06/05 05:51:28;;;;;;;0.40;0.20;;;16.90;99.90;;;;;;5133908;27;20371;-74
2021/06/05 05:53:54;;;;;;;0.40;0.20;;;17.10;99.90;;;;;;5133905;27;20797;-76
2021/06/05 05:56:23;;;;;;;0.40;0.20;;;17.10;99.90;;;;;;5134522;27;20370;-75
2021/06/05 05:58:51;;;;;;;0.40;0.20;;;16.90;99.90;;;;;;5134456;27;20798;-75
2021/06/05 06:01:20;;;;;;;0.40;0.20;;;17.00;99.90;;;;;;5134070;27;20393;-75
2021/06/05 06:03:47;;;;;;;0.40;0.20;;;17.10;99.90;;;;;;5133392;27;20470;-75
2021/06/05 06:06:13;;;;;;;0.40;0.20;;;17.10;99.90;;;;;;5134303;27;20462;-75
2021/06/05 06:08:39;;;;;;;0.40;0.30;;;17.20;99.90;;;;;;5133353;27;20378;-75
2021/06/05 06:11:06;;;;;;;0.40;0.20;;;17.40;99.90;;;;;;5115836;27;20409;-75
2021/06/05 06:13:32;;;;;;;0.40;0.20;;;17.40;99.90;;;;;;5133374;27;20407;-75
2021/06/05 06:15:57;;;;;;;0.40;0.20;;;17.50;99.90;;;;;;5133998;27;20434;-75
2021/06/05 06:18:24;;;;;;;0.40;0.23;;;17.50;99.90;;;;;;5133854;27;20953;-75
2021/06/05 06:20:53;;;;;;;0.40;0.20;;;17.60;99.90;;;;;;5133789;27;20731;-75
2021/06/05 06:23:25;;;;;;;0.40;0.30;;;17.60;99.90;;;;;;5133639;27;20397;-75
2021/06/05 06:25:52;;;;;;;0.40;0.20;;;17.60;99.90;;;;;;5133811;27;20375;-74
2021/06/05 06:28:21;;;;;;;0.40;0.20;;;17.60;99.90;;;;;;5133632;27;20466;-74
2021/06/05 06:30:47;;;;;;;0.40;0.20;;;17.50;99.90;;;;;;5133064;27;20427;-75
2021/06/05 06:33:14;;;;;;;0.40;0.30;;;17.50;99.90;;;;;;5132699;27;20488;-73
2021/06/05 06:35:41;;;;;;;0.40;0.30;;;17.60;99.90;;;;;;5132434;27;20402;-73
2021/06/05 06:38:10;;;;;;;0.40;0.20;;;17.60;99.90;;;;;;5132971;27;20428;-74
2021/06/05 06:40:37;;;;;;;0.40;0.20;;;17.60;99.90;;;;;;5114670;27;20379;-75
2021/06/05 06:43:07;;;;;;;0.40;0.20;;;17.60;99.90;;;;;;5132527;27;20890;-76
2021/06/05 06:45:32;;;;;;;0.40;0.20;;;17.70;99.90;;;;;;5132064;27;20375;-75
2021/06/05 06:47:58;;;;;;;0.40;0.20;;;17.70;99.90;;;;;;5132973;27;20827;-75
2021/06/05 06:50:27;;;;;;;0.40;0.20;;;17.60;99.90;;;;;;5114222;27;20473;-75
2021/06/05 06:52:52;;;;;;;0.40;0.20;;;17.60;99.90;;;;;;5132832;27;20406;-75
2021/06/05 06:55:21;;;;;;;0.40;0.20;;;17.60;99.90;;;;;;5132725;27;20453;-74
2021/06/05 06:57:47;;;;;;;0.40;0.20;;;17.70;99.90;;;;;;5131749;27;20651;-74
2021/06/05 07:00:16;;;;;;;0.40;0.20;;;17.70;99.90;;;;;;5132576;27;20375;-74
2021/06/05 07:02:42;;;;;;;0.40;0.30;;;17.60;99.90;;;;;;5113707;27;20374;-74
2021/06/05 07:05:08;;;;;;;0.40;0.20;;;17.60;99.90;;;;;;5132936;27;20379;-75
2021/06/05 07:07:34;;;;;;;0.40;0.30;;;17.50;99.90;;;;;;5132409;27;20462;-74
2021/06/05 07:09:59;;;;;;;0.40;0.30;;;17.50;99.90;;;;;;5132725;27;20461;-75
2021/06/05 07:12:25;;;;;;;0.40;0.30;;;17.70;99.90;;;;;;5132844;27;20378;-75
2021/06/05 07:14:51;;;;;;;0.40;0.20;;;17.60;99.90;;;;;;5132202;27;20410;-74
2021/06/05 07:17:17;;;;;;;0.40;0.20;;;17.60;99.90;;;;;;5114746;27;20413;-74
2021/06/05 07:19:43;;;;;;;0.40;0.30;;;17.70;99.90;;;;;;5131841;27;20922;-74
2021/06/05 07:22:08;;;;;;;0.40;0.30;;;17.70;99.90;;;;;;5132757;27;20378;-73
2021/06/05 07:24:34;;;;;;;0.40;0.20;;;17.70;99.90;;;;;;5131741;27;20398;-74
2021/06/05 07:27:00;;;;;;;0.40;0.20;;;17.80;99.90;;;;;;5132632;27;20857;-74
2021/06/05 07:29:26;;;;;;;0.40;0.20;;;17.70;99.90;;;;;;5132519;27;20383;-75
2021/06/05 07:31:53;;;;;;;0.40;0.20;;;17.80;99.90;;;;;;5131988;27;20773;-73
2021/06/05 07:34:21;;;;;;;0.40;0.20;;;17.70;99.90;;;;;;5132407;27;20438;-74
2021/06/05 07:36:54;;;;;;;0.40;0.30;;;17.90;99.90;;;;;;5113131;27;20414;-73
2021/06/05 07:39:24;;;;;;;0.40;0.30;;;18.00;99.90;;;;;;5132797;27;20423;-76
2021/06/05 07:41:50;;;;;;;0.40;0.20;;;17.90;99.90;;;;;;5131645;27;20406;-73
2021/06/05 07:44:17;;;;;;;0.40;0.20;;;18.00;99.90;;;;;;5132293;27;20406;-74
2021/06/05 07:46:46;;;;;;;0.40;0.20;;;17.90;99.90;;;;;;5131800;27;20461;-74
2021/06/05 07:49:12;;;;;;;0.40;0.20;;;18.00;99.90;;;;;;5132424;27;20461;-73
2021/06/05 07:51:38;;;;;;;0.40;0.20;;;18.00;99.90;;;;;;5112376;28;20397;-73
2021/06/05 07:54:04;;;;;;;0.40;0.20;;;18.20;99.90;;;;;;5131086;27;20402;-73
2021/06/05 07:56:30;;;;;;;0.40;0.20;;;18.30;99.90;;;;;;5113250;28;20437;-73
2021/06/05 07:58:56;;;;;;;0.40;0.20;;;18.40;99.90;;;;;;5132437;28;20428;-75
2021/06/05 08:01:22;;;;;;;0.40;0.30;;;18.30;99.90;;;;;;5132225;28;20371;-74
2021/06/05 08:03:49;;;;;;;0.40;0.30;;;18.50;99.90;;;;;;5131630;28;20375;-72
2021/06/05 08:06:15;;;;;;;0.40;0.20;;;18.50;99.90;;;;;;5132009;28;20402;-72
2021/06/05 08:08:41;;;;;;;0.40;0.20;;;18.50;99.90;;;;;;5131197;28;20375;-73
2021/06/05 08:11:06;;;;;;;0.40;0.20;;;18.40;99.90;;;;;;5132273;28;20912;-73
2021/06/05 08:13:32;;;;;;;0.40;0.20;;;18.50;99.90;;;;;;5131880;28;20422;-74
2021/06/05 08:15:58;;;;;;;0.40;0.30;;;18.50;99.90;;;;;;5131853;28;20739;-72
2021/06/05 08:18:24;;;;;;;0.40;0.23;;;18.40;99.90;;;;;;5132059;28;20378;-74
2021/06/05 08:20:55;;;;;;;0.40;0.20;;;18.40;99.90;;;;;;5131429;28;20851;-73
2021/06/05 08:23:22;;;;;;;0.40;0.20;;;18.40;99.90;;;;;;5132068;28;20851;-74
2021/06/05 08:25:49;;;;;;;0.40;0.25;;;18.40;99.90;;;;;;5131258;28;20382;-75
2021/06/05 08:28:15;;;;;;;0.40;0.20;;;18.60;99.90;;;;;;5131861;28;20378;-74
2021/06/05 08:30:44;;;;;;;0.40;0.30;;;18.50;99.90;;;;;;5112781;28;20389;-72
2021/06/05 08:33:11;;;;;;;0.40;0.20;;;18.60;99.90;;;;;;5113377;28;20385;-72
2021/06/05 08:35:38;;;;;;;0.40;0.20;;;18.50;99.90;;;;;;5129699;27;20504;-73
2021/06/05 08:38:06;;;;;;;0.40;0.30;;;18.50;99.90;;;;;;5134453;27;20784;-72
2021/06/05 08:40:43;;;;;;;0.40;0.20;;;18.50;99.90;;;;;;5129726;27;20367;-75
2021/06/05 08:43:10;;;;;;;0.40;0.20;;;18.60;99.90;;;;;;5135312;27;20371;-73
2021/06/05 08:45:36;;;;;;;0.40;0.20;;;18.40;99.90;;;;;;5134973;27;20866;-73
2021/06/05 08:48:05;;;;;;;0.40;0.20;;;18.60;99.90;;;;;;5135639;27;20374;-72
2021/06/05 08:50:31;;;;;;;0.40;0.20;;;18.60;99.90;;;;;;5135390;27;20549;-74
2021/06/05 08:53:18;;;;;;;0.40;0.20;;;18.50;99.90;;;;;;5135065;27;20375;-72
2021/06/05 08:55:59;;;;;;;0.40;0.30;;;18.50;99.90;;;;;;5134206;27;20886;-73
2021/06/05 08:58:46;;;;;;;0.40;0.20;;;18.40;99.90;;;;;;5135130;27;20462;-72
2021/06/05 09:01:23;;;;;;;0.40;0.30;;;18.30;99.90;;;;;;5135089;27;20387;-71
2021/06/05 09:03:58;;;;;;;0.40;0.20;;;18.20;99.90;;;;;;5134760;27;20464;-72
2021/06/05 09:06:39;;;;;;;0.40;0.30;;;18.10;99.90;;;;;;5134822;27;20870;-71
2021/06/05 09:09:08;;;;;;;0.40;0.30;;;18.30;99.90;;;;;;5135243;27;20414;-73
2021/06/05 09:11:34;;;;;;;0.40;0.30;;;18.20;99.90;;;;;;5116731;27;20391;-72
2021/06/05 09:14:00;;;;;;;0.40;0.20;;;18.20;99.90;;;;;;5134830;27;20386;-73
2021/06/05 09:16:46;;;;;;;0.40;0.25;;;18.20;99.90;;;;;;5135459;27;20843;-72
2021/06/05 09:19:21;;;;;;;0.40;0.20;;;18.20;99.90;;;;;;5116944;27;20878;-73
2021/06/05 09:21:59;;;;;;;0.40;0.30;;;18.20;99.90;;;;;;5134479;27;20434;-73
2021/06/05 09:24:37;;;;;;;0.40;0.30;;;18.40;99.90;;;;;;5134657;27;20421;-72
2021/06/05 09:27:16;;;;;;;0.40;0.20;;;18.30;99.90;;;;;;5134865;27;20378;-73
2021/06/05 09:30:13;;;;;;;0.40;0.30;;;18.40;99.90;;;;;;5133909;27;20367;-72
2021/06/05 09:32:51;;;;;;;0.40;0.30;;;18.40;99.90;;;;;;5132731;27;20477;-73
2021/06/05 09:35:22;;;;;;;0.40;0.20;;;18.40;99.90;;;;;;5134607;27;20754;-72
2021/06/05 09:37:55;;;;;;;0.40;0.30;;;18.30;99.90;;;;;;5115644;27;20394;-73
2021/06/05 09:40:31;;;;;;;0.40;0.20;;;18.40;99.90;;;;;;5116093;27;20387;-74
2021/06/05 09:43:17;;;;;;;0.40;0.20;;;18.40;99.90;;;;;;5134177;27;20382;-74
2021/06/05 09:46:02;;;;;;;0.40;0.20;;;18.40;99.90;;;;;;5133347;27;20855;-73
2021/06/05 09:48:39;;;;;;;0.40;0.30;;;18.50;99.90;;;;;;5133770;27;20379;-73
2021/06/05 09:51:23;;;;;;;0.40;0.30;;;18.70;99.90;;;;;;5134239;27;20383;-74
2021/06/05 09:54:14;;;;;;;0.40;0.20;;;18.60;99.90;;;;;;5133494;27;20390;-73
2021/06/05 09:56:48;;;;;;;0.40;0.20;;;18.70;99.90;;;;;;5084523;27;20531;-75
2021/06/05 09:59:26;;;;;;;0.40;0.20;;;18.80;99.90;;;;;;5134291;27;20370;-73
2021/06/05 10:02:00;;;;;;;0.40;0.20;;;18.90;99.90;;;;;;5115099;27;20391;-74
2021/06/05 10:04:29;;;;;;;0.40;0.20;;;18.90;99.90;;;;;;5134118;27;20390;-74
2021/06/05 10:06:57;;;;;;;0.40;0.30;;;18.90;99.90;;;;;;5133592;27;20410;-74
2021/06/05 10:09:26;;;;;;;0.40;0.30;;;19.00;99.90;;;;;;5133808;27;20367;-76
2021/06/05 10:11:57;;;;;;;0.40;0.20;;;19.10;99.90;;;;;;5133295;27;20383;-73
2021/06/05 10:14:37;;;;;;;0.40;0.30;;;19.10;99.90;;;;;;5133968;27;20434;-74
2021/06/05 10:17:15;;;;;;;0.40;0.20;;;19.00;99.90;;;;;;5133165;27;20443;-74
2021/06/05 10:20:15;;;;;;;0.40;0.30;;;19.20;99.90;;;;;;5133357;27;20394;-74
2021/06/05 10:22:42;;;;;;;0.40;0.30;;;19.20;99.90;;;;;;5133258;27;20371;-74
2021/06/05 10:25:08;;;;;;;0.40;0.30;;;19.20;99.90;;;;;;5133593;27;20394;-78
2021/06/05 10:27:41;;;;;;;0.40;0.30;;;18.90;99.90;;;;;;5133156;27;20387;-73
2021/06/05 10:30:22;;;;;;;0.40;0.20;;;18.80;99.90;;;;;;5133492;27;20367;-73
2021/06/05 10:32:48;;;;;;;0.40;0.30;;;18.80;99.90;;;;;;5133125;27;20757;-73
2021/06/05 10:35:17;;;;;;;0.40;0.22;;;18.60;99.90;;;;;;5133362;27;20812;-72
2021/06/05 10:37:42;;;;;;;0.40;0.30;;;18.70;99.90;;;;;;5132350;27;20470;-73
2021/06/05 10:40:18;;;;;;;0.40;0.20;;;18.70;99.90;;;;;;5133204;27;20507;-73
2021/06/05 10:42:48;;;;;;;0.40;0.20;;;18.80;99.90;;;;;;5129622;27;20379;-73
2021/06/05 10:45:28;;;;;;;0.40;0.30;;;18.90;99.90;;;;;;5124633;27;20404;-82
2021/06/05 10:48:15;;;;;;;0.40;0.30;;;19.10;99.90;;;;;;5135435;27;20379;-76
2021/06/05 10:50:44;;;;;;;0.40;0.30;;;19.40;99.90;;;;;;5115067;27;20402;-79
2021/06/05 10:53:19;;;;;;;0.40;0.20;;;19.60;99.90;;;;;;5119596;27;20378;-76
2021/06/05 10:55:51;;;;;;;0.40;0.20;;;19.70;99.90;;;;;;5117781;27;20426;-77
2021/06/05 10:58:47;;;;;;;0.40;0.30;;;19.50;99.90;;;;;;5121420;27;20470;-76
2021/06/05 11:01:38;;;;;;;0.40;0.30;;;19.60;99.90;;;;;;5141400;27;20377;-76
2021/06/05 11:04:25;;;;;;;0.40;0.20;;;19.80;99.90;;;;;;5138920;27;20381;-77
2021/06/05 11:06:51;;;;;;;0.40;0.20;;;19.80;99.90;;;;;;5139544;27;20405;-77
2021/06/05 11:09:32;;;;;;;0.40;0.20;;;19.70;99.90;;;;;;5142232;27;20407;-78
2021/06/05 11:12:04;;;;;;;0.40;0.20;;;20.10;99.90;;;;;;5137848;27;20742;-79
2021/06/05 11:14:35;;;;;;;0.40;0.30;;;20.00;99.90;;;;;;5136650;27;20493;-79
2021/06/05 11:17:03;;;;;;;0.40;0.20;;;19.70;99.90;;;;;;5134684;27;20413;-78
2021/06/05 11:19:34;;;;;;;0.40;0.20;;;19.60;99.90;;;;;;5119811;27;20432;-79
2021/06/05 11:22:04;;;;;;;0.40;0.20;;;20.00;99.90;;;;;;5139716;27;20472;-80
2021/06/05 11:24:30;;;;;;;0.40;0.20;;;20.60;99.90;;;;;;5146110;27;20869;-76
2021/06/05 11:26:58;;;;;;;0.40;0.20;;;20.80;99.90;;;;;;5139650;27;20391;-80
2021/06/05 11:29:26;;;;;;;0.40;0.20;;;20.70;99.90;;;;;;5140041;27;20430;-77
2021/06/05 11:32:22;;;;;;;0.40;0.20;;;20.30;99.90;;;;;;5123046;27;20416;-82
2021/06/05 11:34:52;;;;;;;0.40;0.30;;;20.10;99.90;;;;;;5128297;27;20472;-76
2021/06/05 11:37:17;;;;;;;0.40;0.30;;;20.00;99.90;;;;;;5152991;27;20456;-76
2021/06/05 11:39:51;;;;;;;0.40;0.30;;;20.00;99.90;;;;;;5152850;27;20944;-76
2021/06/05 11:42:17;;;;;;;0.40;0.20;;;19.80;99.90;;;;;;5133448;27;20386;-77
2021/06/05 11:44:44;;;;;;;0.40;0.28;;;20.10;99.90;;;;;;5109579;27;20417;-79
2021/06/05 11:47:16;;;;;;;0.40;0.20;;;20.30;99.90;;;;;;5110868;27;20386;-82
2021/06/05 11:49:42;;;;;;;0.40;0.20;;;20.20;99.90;;;;;;5127974;27;20399;-79
2021/06/05 11:52:34;;;;;;;0.40;0.30;;;20.50;99.90;;;;;;5111419;27;20494;-80
2021/06/05 11:55:43;;;;;;;0.40;0.20;;;21.10;99.90;;;;;;5113547;28;20422;-79
2021/06/05 11:58:24;;;;;;;0.40;0.20;;;21.50;99.90;;;;;;5096377;28;20918;-77
2021/06/05 12:01:29;;;;;;;0.40;0.30;;;21.20;99.90;;;;;;5112195;28;20870;-80
2021/06/05 12:03:55;;;;;;;0.40;0.20;;;21.00;99.90;;;;;;5109567;28;20442;-77
2021/06/05 12:06:26;;;;;;;0.40;0.20;;;20.70;99.90;;;;;;5129878;28;20851;-79
2021/06/05 12:09:07;;;;;;;0.40;0.30;;;20.80;99.90;;;;;;5126009;28;20427;-80
2021/06/05 12:11:52;;;;;;;0.40;0.30;;;22.00;99.90;;;;;;5101217;27;20391;-81
2021/06/05 12:14:29;;;;;;;0.40;0.30;;;22.10;98.70;;;;;;5134868;27;20385;-77
2021/06/05 12:16:58;;;;;;;0.40;0.30;;;22.90;97.20;;;;;;5116550;27;20897;-80
2021/06/05 12:19:35;;;;;;;0.40;0.30;;;23.00;95.10;;;;;;5135547;27;20491;-80
2021/06/05 12:22:30;;;;;;;0.40;0.30;;;23.20;94.60;;;;;;5134652;27;20466;-78
2021/06/05 12:24:56;;;;;;;0.40;0.20;;;23.10;94.00;;;;;;5135409;27;20447;-79
2021/06/05 12:27:30;;;;;;;0.40;0.20;;;23.10;94.30;;;;;;5117282;27;20401;-79
2021/06/05 12:30:14;;;;;;;0.40;0.30;;;22.60;94.50;;;;;;5135261;27;20370;-80
2021/06/05 12:32:50;;;;;;;0.40;0.25;;;22.60;95.70;;;;;;5117117;27;20387;-77
2021/06/05 12:35:44;;;;;;;0.40;0.20;;;22.10;95.80;;;;;;5134905;27;20512;-79
2021/06/05 12:38:38;;;;;;;0.40;0.25;;;22.00;96.50;;;;;;5133945;27;20451;-79
2021/06/05 12:41:10;;;;;;;0.40;0.20;;;21.90;96.80;;;;;;5123737;27;20394;-81
2021/06/05 12:43:44;;;;;;;0.40;0.20;;;22.80;98.90;;;;;;5134655;27;20507;-80
2021/06/05 12:46:13;;;;;;;0.40;0.25;;;21.20;99.20;;;;;;5115770;27;20727;-80
2021/06/05 12:48:39;;;;;;;0.40;0.30;;;20.90;99.80;;;;;;5134995;27;20835;-80
2021/06/05 12:51:08;;;;;;;0.40;0.20;;;20.40;99.90;;;;;;5133680;27;20466;-79
2021/06/05 12:53:36;;;;;;;0.40;0.20;;;20.40;99.90;;;;;;5112838;27;20406;-80
2021/06/05 12:56:25;;;;;;;0.40;0.30;;;20.60;99.90;;;;;;5133130;27;20442;-80
2021/06/05 12:58:59;;;;;;;0.40;0.20;;;20.80;99.90;;;;;;5113353;27;20425;-84
2021/06/05 13:01:28;;;;;;;0.40;0.30;;;20.60;99.90;;;;;;5113976;27;20394;-80
2021/06/05 13:03:54;;;;;;;0.40;0.20;;;20.40;99.90;;;;;;5133444;27;20379;-81
2021/06/05 13:06:28;;;;;;;0.40;0.30;;;20.20;99.90;;;;;;5133295;27;20389;-80